This is the latest recevied weather packets stored in our database for station/object KE8KMM. If no packets are shown the sender has not sent any weather packets the latest 10 day(s).
| Time | Temp. | Humidity | Pressure | Rain* | Wind** | Luminosity | Snow |
|---|---|---|---|---|---|---|---|
| 1777910145 | 19.44° C | 63% | 1007.9 hPa | 0 mm | - | 723 W/m² | - |
| 1777909844 | 19.44° C | 61% | 1007.7 hPa | 0 mm | - | 724 W/m² | - |
| 1777909539 | 19.44° C | 59% | 1007.8 hPa | 0 mm | - | 515 W/m² | - |
| 1777909237 | 18.89° C | 60% | 1007.5 hPa | 0 mm | - | 626 W/m² | - |
| 1777908935 | 18.33° C | 61% | 1007.6 hPa | 0 mm | - | 730 W/m² | - |
| 1777908633 | 18.33° C | 61% | 1007.9 hPa | 0 mm | - | 707 W/m² | - |
| 1777908329 | 18.33° C | 62% | 1007.9 hPa | 0 mm | - | 755 W/m² | - |
| 1777908026 | 18.89° C | 59% | 1008.1 hPa | 0 mm | - | 759 W/m² | - |
| 1777907722 | 18.33° C | 61% | 1007.9 hPa | 0 mm | - | 781 W/m² | - |
| 1777907416 | 18.33° C | 62% | 1007.9 hPa | 0 mm | - | 772 W/m² | - |
| 1777907114 | 17.78° C | 63% | 1008 hPa | 0 mm | - | 769 W/m² | - |
| 1777906811 | 17.78° C | 62% | 1008.2 hPa | 0 mm | - | 806 W/m² | - |
| 1777906509 | 17.78° C | 62% | 1008.4 hPa | 0 mm | - | 789 W/m² | - |
| 1777906204 | 17.78° C | 60% | 1008.3 hPa | 0 mm | - | 777 W/m² | - |
| 1777905901 | 17.22° C | 64% | 1008.5 hPa | 0 mm | - | 794 W/m² | - |
| 1777905597 | 17.22° C | 62% | 1008.6 hPa | 0 mm | - | 226 W/m² | - |
| 1777905295 | 16.67° C | 61% | 1008.6 hPa | 0 mm | - | 287 W/m² | - |
| 1777904992 | 17.22° C | 61% | 1008.6 hPa | 0 mm | - | 701 W/m² | - |
| 1777904689 | 17.22° C | 61% | 1008.5 hPa | 0 mm | - | 678 W/m² | - |
| 1777904386 | 16.67° C | 62% | 1008.7 hPa | 0 mm | - | 658 W/m² | - |
| 1777904083 | 16.11° C | 62% | 1008.6 hPa | 0 mm | - | 627 W/m² | - |
| 1777903779 | 16.11° C | 61% | 1008.6 hPa | 0 mm | - | 645 W/m² | - |
| 1777903476 | 16.11° C | 61% | 1008.6 hPa | 0 mm | - | 592 W/m² | - |
| 1777903172 | 16.11° C | 62% | 1008.6 hPa | 0 mm | - | 566 W/m² | - |
| 1777902869 | 16.11° C | 61% | 1008.9 hPa | 0 mm | - | 520 W/m² | - |
* Rain latest hour (hover to see other rain measurements)
** Current wind speed in m/s (hover to see current wind gust speed)